Aérodrome :
LOGIN :

S'inscrire | Disclaimer

   EN    FR    IT 

 










Légende :    VFR   VFR Marginal   IFR   IFR Intensif   IFR Très Intensif
Visi : 
Plafond : 
>= 8 km
>= 3000ft
5 à 8 km
1000 à 3000 ft
1500m à 5 km
500 à 1000 ft
800 à 1500m
200 à 500 ft
< 800m
< 200 ft
Symboles :   Orages  Brouillard  Fortes neiges  Fortes précipitations  Vent > 20 kt
SIGMETs :   Divers  Orages  Givrage  Turbulence  Onde Orograph.  Cendres Volcan.






- Altitude de l'aérodrome : 187 ft


ETNW - Wunstorf AB

DERNIER METAR :
  • 211620Z 07011KT 9999 FEW056 BKN130 25/12 Q1005 BLU BLU TEMPO GRN

METARs EXPIRÉS :
  • 211520Z 07011KT 9999 FEW056 BKN140 25/12 Q1006 BLU BLU
  • 211420Z 08013KT 9999 FEW056 BKN200 25/12 Q1007 BLU+BLU+
  • 211320Z 10014KT 9999 FEW056 BKN240 26/11 Q1007 BLU+BLU+
  • 211220Z 09015G25KT 9999 FEW054 BKN250 25/11 Q1008 BLU+BLU+

TAF TAF ETNW
Valide du 21 à 11h jusqu'au 22 à 11h UTC


211019Z 2111/2211 08010G20KT 9999 NSW FEW050 BKN300
BECMG 2117/2119 07010KT 9000 -RA SCT020 BKN040
TEMPO 2121/2204 09015KT 4000 RA BKN007
BECMG 2202/2204 22010KT 9999 NSW SCT015 BKN080
TEMPO 2204/2211 25010KT 7000 -RA BKN020



MET'MAP, la Météo Aéronautique d'un coup d'oeil ! - Copyright ORBIFLY Décembre 2007 - Disclaimer

ORBIFLY MET'MAP TEAM :

Programmation & Développement : Alexandra Zaïnal
Sur une idée originale de : Baudouin d'Aumeries
Soutien technique & logistique : Manuel Goepfert
Assistance : Marc-Olivier Méhu




SOURCES & CREDITS :

   NOAA